createdAt,value
2019-02-12T00:00:21.603Z,69.43
2019-02-12T00:05:27.244Z,69.39
2019-02-12T00:10:32.784Z,69.31
2019-02-12T00:15:38.252Z,68.93
2019-02-12T00:20:43.696Z,68.95
2019-02-12T00:25:48.930Z,69.06
2019-02-12T00:30:54.422Z,68.21
2019-02-12T00:36:00.058Z,68.20
2019-02-12T00:41:05.449Z,67.56
2019-02-12T00:46:10.796Z,67.92
2019-02-12T00:51:17.858Z,67.70
2019-02-12T00:56:23.156Z,67.45
2019-02-12T01:01:28.299Z,67.20
2019-02-12T01:06:35.618Z,67.26
2019-02-12T01:11:41.084Z,67.33
2019-02-12T01:16:46.641Z,67.44
2019-02-12T01:21:52.096Z,67.34
2019-02-12T01:26:57.462Z,67.37
2019-02-12T01:32:02.714Z,67.68
2019-02-12T01:37:08.180Z,67.97
2019-02-12T01:42:13.328Z,68.19
2019-02-12T01:47:18.797Z,68.11
2019-02-12T01:52:23.956Z,68.29
2019-02-12T01:57:29.175Z,68.45
2019-02-12T02:02:34.605Z,68.76
2019-02-12T02:07:39.779Z,68.78
2019-02-12T02:12:45.586Z,68.84
2019-02-12T02:17:50.838Z,68.41
2019-02-12T02:22:56.087Z,68.54
2019-02-12T02:28:01.353Z,67.89
2019-02-12T02:33:06.736Z,68.00
2019-02-12T02:38:12.479Z,67.57
2019-02-12T02:43:17.839Z,66.89
2019-02-12T02:48:22.978Z,67.14
2019-02-12T02:53:28.555Z,66.87
2019-02-12T02:58:33.695Z,66.55
2019-02-12T03:03:38.995Z,66.29
2019-02-12T03:08:44.436Z,66.39
2019-02-12T03:13:49.884Z,66.51
2019-02-12T03:18:55.256Z,66.13
2019-02-12T03:24:01.016Z,66.13
2019-02-12T03:29:06.278Z,66.03
2019-02-12T03:39:15.752Z,65.01
2019-02-12T03:44:21.130Z,65.54
2019-02-12T03:49:26.344Z,65.27
2019-02-12T03:54:31.770Z,65.08
2019-02-12T03:59:37.076Z,65.59
2019-02-12T04:04:42.651Z,65.58
2019-02-12T04:09:47.910Z,65.51
2019-02-12T04:14:53.136Z,65.52
2019-02-12T04:19:58.486Z,65.16
2019-02-12T04:25:03.793Z,65.16
2019-02-12T04:30:09.479Z,64.87
2019-02-12T04:35:14.811Z,65.22
2019-02-12T04:40:20.060Z,65.18
2019-02-12T04:45:25.524Z,65.31
2019-02-12T04:50:30.881Z,65.20
2019-02-12T04:55:35.914Z,65.72
2019-02-12T05:00:41.374Z,65.13
2019-02-12T05:05:46.659Z,65.28
2019-02-12T05:11:03.786Z,65.51
2019-02-12T05:16:09.046Z,65.57
2019-02-12T05:21:14.176Z,66.09
2019-02-12T05:26:19.359Z,66.07
2019-02-12T05:31:24.611Z,66.27
2019-02-12T05:36:29.962Z,66.14
2019-02-12T05:41:35.661Z,66.45
2019-02-12T05:46:40.987Z,66.60
2019-02-12T05:51:46.561Z,66.92
2019-02-12T05:56:52.228Z,67.22
2019-02-12T06:01:57.485Z,67.46
2019-02-12T06:07:02.837Z,67.46
2019-02-12T06:12:08.301Z,67.73
2019-02-12T06:17:13.473Z,67.66
2019-02-12T06:22:18.716Z,67.78
2019-02-12T06:27:24.952Z,67.54
2019-02-12T06:32:30.367Z,67.74
2019-02-12T06:37:35.600Z,67.95
2019-02-12T06:42:41.050Z,68.03
2019-02-12T06:47:46.322Z,68.01
2019-02-12T06:52:51.778Z,67.87
2019-02-12T06:57:57.136Z,67.83
2019-02-12T07:03:19.144Z,67.54
2019-02-12T07:08:42.662Z,67.08
2019-02-12T07:14:00.405Z,67.40
2019-02-12T07:19:26.873Z,66.92
2019-02-12T07:24:35.257Z,66.67
2019-02-12T07:29:58.794Z,66.33
2019-02-12T07:35:09.979Z,66.33
2019-02-12T07:40:23.873Z,66.11
2019-02-12T07:45:34.941Z,65.40
2019-02-12T07:50:49.003Z,65.22
2019-02-12T07:56:09.162Z,65.26
2019-02-12T08:01:17.425Z,64.64
2019-02-12T08:06:52.413Z,64.95
2019-02-12T08:12:03.481Z,64.81
2019-02-12T08:17:17.535Z,64.78
2019-02-12T08:22:47.068Z,64.87
2019-02-12T08:28:13.208Z,64.03
2019-02-12T08:33:26.998Z,63.74
2019-02-12T08:38:40.946Z,63.42
2019-02-12T08:43:58.421Z,63.08
2019-02-12T08:49:15.350Z,62.92
2019-02-12T08:54:27.967Z,62.25
2019-02-12T08:59:39.077Z,62.52
2019-02-12T09:05:03.718Z,62.68
2019-02-12T09:10:14.950Z,63.04
2019-02-12T09:15:58.392Z,62.81
2019-02-12T09:21:09.609Z,62.04
2019-02-12T09:26:18.005Z,61.45
2019-02-12T09:31:43.955Z,61.83
2019-02-12T09:37:01.057Z,62.50
2019-02-12T09:42:15.250Z,61.95
2019-02-12T09:47:29.713Z,61.80
2019-02-12T09:53:12.618Z,62.29
2019-02-12T09:58:39.016Z,62.05
2019-02-12T10:03:56.257Z,62.10
2019-02-12T10:09:19.323Z,62.43
2019-02-12T10:14:39.428Z,62.75
2019-02-12T10:19:56.678Z,62.90
2019-02-12T10:25:04.772Z,62.76
2019-02-12T10:30:32.758Z,62.34
2019-02-12T10:35:38.044Z,62.52
2019-02-12T10:40:43.182Z,61.74
2019-02-12T10:45:48.446Z,61.01
2019-02-12T10:50:53.607Z,60.37
2019-02-12T10:55:58.798Z,60.79
2019-02-12T11:01:04.515Z,61.74
2019-02-12T11:06:09.685Z,60.84
2019-02-12T11:11:14.956Z,61.29
2019-02-12T11:16:20.287Z,60.10
2019-02-12T11:21:25.537Z,60.12
2019-02-12T11:26:30.860Z,61.12
2019-02-12T11:31:35.959Z,61.30
2019-02-12T11:36:41.300Z,59.09
2019-02-12T11:41:46.581Z,59.53
2019-02-12T11:46:51.927Z,60.12
2019-02-12T11:51:57.095Z,59.78
2019-02-12T11:57:02.353Z,59.67
2019-02-12T12:02:07.685Z,58.79
2019-02-12T12:07:12.960Z,58.02
2019-02-12T12:12:18.168Z,58.00
2019-02-12T12:17:23.882Z,58.44
2019-02-12T12:22:29.228Z,59.99
2019-02-12T12:27:34.490Z,60.99
2019-02-12T12:32:39.743Z,60.71
2019-02-12T12:37:45.104Z,59.74
2019-02-12T12:42:50.334Z,59.65
2019-02-12T12:47:55.649Z,59.38
2019-02-12T12:53:00.975Z,58.91
2019-02-12T12:58:07.324Z,58.48
2019-02-12T13:03:13.565Z,57.89
2019-02-12T13:08:19.004Z,58.55
2019-02-12T13:13:24.263Z,57.91
2019-02-12T13:18:29.618Z,58.15
2019-02-12T13:23:34.748Z,57.86
2019-02-12T13:28:40.081Z,58.39
2019-02-12T13:33:45.396Z,58.20
2019-02-12T13:38:50.462Z,58.28
2019-02-12T13:43:56.007Z,56.40
2019-02-12T13:49:01.231Z,57.35
2019-02-12T13:54:06.471Z,56.84
2019-02-12T13:59:11.857Z,57.42
2019-02-12T14:04:17.090Z,57.84
2019-02-12T14:09:22.790Z,56.44
2019-02-12T14:14:27.949Z,58.15
2019-02-12T14:19:33.335Z,59.35
2019-02-12T14:24:39.285Z,59.33
2019-02-12T14:29:44.531Z,57.15
2019-02-12T14:34:49.797Z,55.08
2019-02-12T14:39:54.854Z,54.13
2019-02-12T14:45:00.274Z,54.57
2019-02-12T14:50:08.480Z,54.47
2019-02-12T14:55:13.968Z,55.52
2019-02-12T15:00:20.531Z,56.66
2019-02-12T15:05:25.731Z,58.50
2019-02-12T15:10:30.984Z,60.09
2019-02-12T15:15:36.446Z,61.12
2019-02-12T15:20:41.801Z,61.09
2019-02-12T15:25:47.274Z,61.43
2019-02-12T15:30:52.692Z,61.76
2019-02-12T15:35:58.023Z,62.51
2019-02-12T15:41:05.983Z,63.26
2019-02-12T15:46:10.443Z,63.62
2019-02-12T15:51:15.604Z,64.12
2019-02-12T15:56:20.818Z,64.44
2019-02-12T16:01:28.166Z,64.73
2019-02-12T16:06:33.817Z,65.28
2019-02-12T16:11:39.997Z,65.28
2019-02-12T16:16:45.975Z,65.26
2019-02-12T16:21:51.114Z,65.61
2019-02-12T16:26:56.170Z,65.66
2019-02-12T16:32:01.561Z,66.11
2019-02-12T16:37:06.614Z,66.08
2019-02-12T16:42:12.037Z,65.90
2019-02-12T16:47:17.315Z,65.74
2019-02-12T16:52:22.574Z,65.95
2019-02-12T16:57:27.626Z,65.95
2019-02-12T17:02:32.663Z,66.13
2019-02-12T17:07:37.851Z,66.59
2019-02-12T17:12:43.211Z,66.90
2019-02-12T17:17:48.757Z,67.17
2019-02-12T17:22:54.008Z,67.35
2019-02-12T17:27:59.121Z,67.42
2019-02-12T17:33:04.256Z,67.59
2019-02-12T17:38:09.407Z,68.02
2019-02-12T17:43:14.627Z,68.14
2019-02-12T17:48:19.792Z,68.20
2019-02-12T17:53:25.645Z,68.46
2019-02-12T17:58:31.109Z,68.76
2019-02-12T18:03:36.365Z,69.03
2019-02-12T18:08:41.413Z,69.29
2019-02-12T18:13:46.476Z,69.62
2019-02-12T18:18:51.985Z,69.95
2019-02-12T18:23:57.310Z,70.14
2019-02-12T18:29:02.742Z,70.39
2019-02-12T18:34:07.994Z,70.58
2019-02-12T18:39:13.118Z,70.76
2019-02-12T18:44:18.410Z,70.95
2019-02-12T18:49:23.690Z,70.97
2019-02-12T18:54:28.907Z,71.09
2019-02-12T18:59:34.086Z,71.34
2019-02-12T19:04:39.563Z,71.42
2019-02-12T19:09:44.899Z,71.40
2019-02-12T19:14:50.360Z,71.45
2019-02-12T19:19:55.712Z,71.35
2019-02-12T19:25:01.049Z,71.24
2019-02-12T19:30:09.496Z,71.11
2019-02-12T19:35:15.105Z,71.06
2019-02-12T19:40:20.306Z,70.95
2019-02-12T19:45:25.693Z,70.82
2019-02-12T19:50:30.852Z,70.87
2019-02-12T19:55:36.294Z,71.06
2019-02-12T20:00:41.554Z,71.10
2019-02-12T20:05:46.984Z,70.92
2019-02-12T20:10:52.174Z,70.63
2019-02-12T20:15:57.640Z,70.62
2019-02-12T20:21:02.810Z,70.58
2019-02-12T20:26:08.142Z,70.58
2019-02-12T20:31:13.301Z,70.62
2019-02-12T20:36:18.460Z,70.60
2019-02-12T20:41:24.123Z,70.75
2019-02-12T20:46:29.481Z,70.83
2019-02-12T20:51:34.991Z,70.78
2019-02-12T20:56:40.099Z,71.02
2019-02-12T21:01:45.321Z,71.09
2019-02-12T21:06:50.797Z,71.27
2019-02-12T21:11:56.166Z,71.36
2019-02-12T21:17:01.326Z,71.46
2019-02-12T21:22:06.867Z,71.64
2019-02-12T21:27:12.405Z,71.81
2019-02-12T21:32:17.710Z,71.85
2019-02-12T21:37:22.961Z,71.95
2019-02-12T21:42:28.422Z,72.12
2019-02-12T21:47:33.866Z,72.33
2019-02-12T21:52:39.244Z,72.32
2019-02-12T21:57:44.787Z,72.36
2019-02-12T22:02:49.946Z,72.50
2019-02-12T22:07:55.222Z,72.65
2019-02-12T22:13:00.462Z,72.88
2019-02-12T22:18:05.961Z,72.90
2019-02-12T22:23:11.304Z,72.97
2019-02-12T22:28:16.935Z,73.08
2019-02-12T22:33:22.209Z,73.17
2019-02-12T22:38:27.653Z,73.21
2019-02-12T22:43:33.109Z,73.35
2019-02-12T22:48:38.352Z,73.56
2019-02-12T22:53:43.655Z,73.58
2019-02-12T22:58:49.034Z,73.48
2019-02-12T23:03:54.682Z,73.34
2019-02-12T23:09:00.141Z,73.25
2019-02-12T23:14:05.702Z,73.02
2019-02-12T23:19:11.118Z,72.76
2019-02-12T23:24:16.422Z,72.65
2019-02-12T23:29:21.668Z,72.48
2019-02-12T23:34:27.140Z,72.34
2019-02-12T23:39:32.638Z,72.21
2019-02-12T23:44:38.002Z,72.00
2019-02-12T23:49:43.332Z,71.72
2019-02-12T23:54:48.440Z,71.50
2019-02-12T23:59:54.064Z,71.13
